createdAt,value
2024-05-09T00:03:31.561Z,5.40
2024-05-09T00:08:37.450Z,5.44
2024-05-09T00:13:43.117Z,5.47
2024-05-09T00:18:51.577Z,5.55
2024-05-09T00:23:57.494Z,5.63
2024-05-09T00:29:03.036Z,5.64
2024-05-09T00:34:11.613Z,5.57
2024-05-09T00:39:17.631Z,5.46
2024-05-09T00:44:23.355Z,5.56
2024-05-09T00:49:32.150Z,5.58
2024-05-09T00:54:37.888Z,5.64
2024-05-09T00:59:44.070Z,5.51
2024-05-09T01:04:53.529Z,5.54
2024-05-09T01:09:59.341Z,5.51
2024-05-09T01:15:04.849Z,5.55
2024-05-09T01:20:20.104Z,5.51
2024-05-09T01:25:35.653Z,5.51
2024-05-09T01:30:41.479Z,5.38
2024-05-09T01:35:47.135Z,5.26
2024-05-09T01:40:55.526Z,5.21
2024-05-09T01:46:01.189Z,5.32
2024-05-09T01:51:06.937Z,5.30
2024-05-09T01:56:15.771Z,5.28
2024-05-09T02:01:21.465Z,5.35
2024-05-09T02:06:27.127Z,5.24
2024-05-09T02:11:36.089Z,5.22
2024-05-09T02:16:41.717Z,5.12
2024-05-09T02:21:47.236Z,5.14
2024-05-09T02:26:55.575Z,5.01
2024-05-09T02:32:01.370Z,4.94
2024-05-09T02:37:07.214Z,4.77
2024-05-09T02:42:15.452Z,4.80
2024-05-09T02:47:21.215Z,4.84
2024-05-09T02:52:27.006Z,4.86
2024-05-09T02:57:35.293Z,4.67
2024-05-09T03:02:40.977Z,4.62
2024-05-09T03:07:46.760Z,4.53
2024-05-09T03:12:55.051Z,4.50
2024-05-09T03:18:01.346Z,4.40
2024-05-09T03:23:08.470Z,4.38
2024-05-09T03:28:17.682Z,4.39
2024-05-09T03:33:23.842Z,4.42
2024-05-09T03:38:29.642Z,4.36
2024-05-09T03:43:37.889Z,4.39
2024-05-09T03:48:43.470Z,4.39
2024-05-09T03:53:49.194Z,4.43
2024-05-09T03:58:58.297Z,4.51
2024-05-09T04:04:04.009Z,4.61
2024-05-09T04:09:09.671Z,4.60
2024-05-09T04:14:17.985Z,4.65
2024-05-09T04:19:23.686Z,4.73
2024-05-09T04:24:29.431Z,4.87
2024-05-09T04:29:38.081Z,5.01
2024-05-09T04:34:43.879Z,5.12
2024-05-09T04:39:49.569Z,5.24
2024-05-09T04:44:58.797Z,5.30
2024-05-09T04:50:05.545Z,5.52
2024-05-09T04:55:11.368Z,5.68
2024-05-09T05:00:28.461Z,5.87
2024-05-09T05:05:42.074Z,6.02
2024-05-09T05:10:48.884Z,6.18
2024-05-09T05:15:58.624Z,6.34
2024-05-09T05:21:04.805Z,6.44
2024-05-09T05:26:10.509Z,6.91
2024-05-09T05:31:18.972Z,8.27
2024-05-09T05:36:24.655Z,10.80
2024-05-09T05:41:30.351Z,11.21
2024-05-09T05:46:38.569Z,12.17
2024-05-09T05:51:44.154Z,11.31
2024-05-09T05:56:49.829Z,11.71
2024-05-09T06:01:58.267Z,11.98
2024-05-09T06:07:04.215Z,13.68
2024-05-09T06:12:10.483Z,15.17
2024-05-09T06:17:19.183Z,15.75
2024-05-09T06:22:25.157Z,16.17
2024-05-09T06:27:30.767Z,16.87
2024-05-09T06:32:39.167Z,17.02
2024-05-09T06:37:45.158Z,17.48
2024-05-09T06:42:50.849Z,18.19
2024-05-09T06:47:59.249Z,18.71
2024-05-09T06:53:05.312Z,19.41
2024-05-09T06:58:12.053Z,19.33
2024-05-09T07:03:20.630Z,19.87
2024-05-09T07:08:26.461Z,20.14
2024-05-09T07:13:32.586Z,19.63
2024-05-09T07:18:41.202Z,19.64
2024-05-09T07:23:47.532Z,19.39
2024-05-09T07:28:53.485Z,19.58
2024-05-09T07:34:02.340Z,19.75
2024-05-09T07:39:08.463Z,19.61
2024-05-09T07:44:14.290Z,19.65
2024-05-09T07:54:31.735Z,20.29
2024-05-09T07:59:38.012Z,20.49
2024-05-09T08:04:47.102Z,20.69
2024-05-09T08:09:52.874Z,19.26
2024-05-09T08:14:58.451Z,19.71
2024-05-09T08:20:07.645Z,18.90
2024-05-09T08:25:14.566Z,18.36
2024-05-09T08:30:25.409Z,19.69
2024-05-09T08:35:41.780Z,20.20
2024-05-09T08:40:47.654Z,20.84
2024-05-09T08:45:54.210Z,19.97
2024-05-09T08:51:02.609Z,19.57
2024-05-09T08:56:11.002Z,19.90
2024-05-09T09:01:18.270Z,19.72
2024-05-09T09:06:27.492Z,19.50
2024-05-09T09:11:33.785Z,19.37
2024-05-09T09:16:40.290Z,19.18
2024-05-09T09:21:48.726Z,20.78
2024-05-09T09:26:54.498Z,20.43
2024-05-09T09:32:04.078Z,20.67
2024-05-09T09:37:14.072Z,19.86
2024-05-09T09:42:20.603Z,20.18
2024-05-09T09:47:26.909Z,20.98
2024-05-09T09:52:35.543Z,20.81
2024-05-09T09:57:42.739Z,21.12
2024-05-09T10:02:48.365Z,20.02
2024-05-09T10:07:57.035Z,19.77
2024-05-09T10:13:03.048Z,20.70
2024-05-09T10:18:09.593Z,21.37
2024-05-09T10:23:32.445Z,19.81
2024-05-09T10:28:39.466Z,21.60
2024-05-09T10:33:50.860Z,20.70
2024-05-09T10:39:00.375Z,20.93
2024-05-09T10:44:06.137Z,20.09
2024-05-09T10:49:12.538Z,21.18
2024-05-09T10:54:21.044Z,21.36
2024-05-09T10:59:27.071Z,21.50
2024-05-09T11:04:33.398Z,21.60
2024-05-09T11:09:42.720Z,21.96
2024-05-09T11:14:56.526Z,21.71
2024-05-09T11:20:08.123Z,22.02
2024-05-09T11:25:19.355Z,22.11
2024-05-09T11:30:31.587Z,19.87
2024-05-09T11:35:37.812Z,20.86
2024-05-09T11:40:46.285Z,22.49
2024-05-09T11:45:52.228Z,21.69
2024-05-09T11:50:58.150Z,21.13
2024-05-09T11:56:06.669Z,22.62
2024-05-09T12:01:12.534Z,20.05
2024-05-09T12:06:18.520Z,20.34
2024-05-09T12:11:27.351Z,21.33
2024-05-09T12:16:33.382Z,20.99
2024-05-09T12:21:38.979Z,19.72
2024-05-09T12:26:47.411Z,19.28
2024-05-09T12:31:53.547Z,20.60
2024-05-09T12:36:59.322Z,21.79
2024-05-09T12:42:09.750Z,19.71
2024-05-09T12:47:16.934Z,19.28
2024-05-09T12:52:22.822Z,19.94
2024-05-09T12:57:31.324Z,20.80
2024-05-09T13:02:37.093Z,20.30
2024-05-09T13:07:43.490Z,21.38
2024-05-09T13:12:52.143Z,21.01
2024-05-09T13:18:00.455Z,21.42
2024-05-09T13:23:09.885Z,22.10
2024-05-09T13:28:18.286Z,21.29
2024-05-09T13:33:24.108Z,21.37
2024-05-09T13:38:29.917Z,20.14
2024-05-09T13:43:39.004Z,19.65
2024-05-09T13:48:44.785Z,19.83
2024-05-09T13:53:50.363Z,19.65
2024-05-09T13:58:58.486Z,19.84
2024-05-09T14:04:05.282Z,19.53
2024-05-09T14:09:11.893Z,18.73
2024-05-09T14:14:20.205Z,18.97
2024-05-09T14:19:25.927Z,19.87
2024-05-09T14:24:31.749Z,19.88
2024-05-09T14:29:40.086Z,21.03
2024-05-09T14:34:45.846Z,21.03
2024-05-09T14:39:51.548Z,20.69
2024-05-09T14:45:02.132Z,20.42
2024-05-09T14:50:13.856Z,20.42
2024-05-09T14:55:24.883Z,20.31
2024-05-09T15:00:35.802Z,20.35
2024-05-09T15:05:43.334Z,21.03
2024-05-09T15:10:49.960Z,20.04
2024-05-09T15:15:58.779Z,20.19
2024-05-09T15:21:04.398Z,19.80
2024-05-09T15:26:10.354Z,19.92
2024-05-09T15:31:18.915Z,19.98
2024-05-09T15:36:24.542Z,19.97
2024-05-09T15:41:30.220Z,20.54
2024-05-09T15:46:38.575Z,20.36
2024-05-09T15:51:44.954Z,20.44
2024-05-09T15:56:51.376Z,20.94
2024-05-09T16:01:59.963Z,20.34
2024-05-09T16:07:06.009Z,19.96
2024-05-09T16:12:11.952Z,20.22
2024-05-09T16:17:21.186Z,19.83
2024-05-09T16:22:27.264Z,20.16
2024-05-09T16:27:33.225Z,19.87
2024-05-09T16:32:44.284Z,19.70
2024-05-09T16:37:50.516Z,19.59
2024-05-09T16:42:56.407Z,19.81
2024-05-09T16:48:05.376Z,19.38
2024-05-09T16:53:11.299Z,19.56
2024-05-09T16:58:17.338Z,19.24
2024-05-09T17:03:26.546Z,19.44
2024-05-09T17:08:32.463Z,19.18
2024-05-09T17:13:39.578Z,19.05
2024-05-09T17:18:48.915Z,18.73
2024-05-09T17:23:55.798Z,18.34
2024-05-09T17:29:01.732Z,17.97
2024-05-09T17:34:10.191Z,17.41
2024-05-09T17:39:16.382Z,17.18
2024-05-09T17:44:21.920Z,16.91
2024-05-09T17:49:30.354Z,16.61
2024-05-09T17:54:36.458Z,16.56
2024-05-09T17:59:42.148Z,16.13
2024-05-09T18:04:50.617Z,15.74
2024-05-09T18:09:56.299Z,15.44
2024-05-09T18:15:02.573Z,15.19
2024-05-09T18:20:19.690Z,15.02
2024-05-09T18:25:35.829Z,14.81
2024-05-09T18:30:41.937Z,14.56
2024-05-09T18:35:50.171Z,14.11
2024-05-09T18:40:56.021Z,14.00
2024-05-09T18:46:01.760Z,13.62
2024-05-09T18:51:10.283Z,13.65
2024-05-09T18:56:16.210Z,13.44
2024-05-09T19:01:22.148Z,12.94
2024-05-09T19:06:30.609Z,12.72
2024-05-09T19:11:39.918Z,12.61
2024-05-09T19:16:47.054Z,12.08
2024-05-09T19:21:55.221Z,12.07
2024-05-09T19:27:02.050Z,12.00
2024-05-09T19:32:08.454Z,11.91
2024-05-09T19:37:17.024Z,11.69
2024-05-09T19:42:22.830Z,11.57
2024-05-09T19:47:30.050Z,11.30
2024-05-09T19:52:38.625Z,11.19
2024-05-09T19:57:44.661Z,11.09
2024-05-09T20:02:50.631Z,10.93
2024-05-09T20:07:59.138Z,10.63
2024-05-09T20:13:06.040Z,10.54
2024-05-09T20:18:12.869Z,10.41
2024-05-09T20:23:21.319Z,10.46
2024-05-09T20:28:27.515Z,10.13
2024-05-09T20:33:33.526Z,10.11
2024-05-09T20:38:41.932Z,9.98
2024-05-09T20:43:47.799Z,9.92
2024-05-09T20:48:53.674Z,9.81
2024-05-09T20:54:02.362Z,9.74
2024-05-09T20:59:08.128Z,9.70
2024-05-09T21:04:13.982Z,9.54
2024-05-09T21:09:25.707Z,9.45
2024-05-09T21:14:31.523Z,9.18
2024-05-09T21:19:37.460Z,9.11
2024-05-09T21:24:45.849Z,9.09
2024-05-09T21:29:51.707Z,9.03
2024-05-09T21:34:57.371Z,8.95
2024-05-09T21:40:11.281Z,8.89
2024-05-09T21:45:19.472Z,8.76
2024-05-09T21:50:32.303Z,8.69
2024-05-09T21:55:47.791Z,8.59
2024-05-09T22:00:53.557Z,8.52
2024-05-09T22:05:59.649Z,8.42
2024-05-09T22:11:08.394Z,8.39
2024-05-09T22:16:14.088Z,8.31
2024-05-09T22:21:19.894Z,8.15
2024-05-09T22:26:28.241Z,8.07
2024-05-09T22:31:34.020Z,8.15
2024-05-09T22:36:39.770Z,8.08
2024-05-09T22:41:48.386Z,7.99
2024-05-09T22:46:54.086Z,7.90
2024-05-09T22:51:59.761Z,7.86
2024-05-09T22:57:08.535Z,7.76
2024-05-09T23:02:14.678Z,7.59
2024-05-09T23:07:20.653Z,7.55
2024-05-09T23:12:28.927Z,7.46
2024-05-09T23:17:34.766Z,7.23
2024-05-09T23:22:40.544Z,7.27
2024-05-09T23:27:49.006Z,7.32
2024-05-09T23:32:54.794Z,7.12
2024-05-09T23:38:00.583Z,7.15
2024-05-09T23:43:09.316Z,7.11
2024-05-09T23:48:15.255Z,7.12
2024-05-09T23:53:20.980Z,6.98
2024-05-09T23:58:29.502Z,6.88
